sensor_id;sensor_type;location;lat;lon;timestamp;P1;durP1;ratioP1;P2;durP2;ratioP2
65244;SDS011;51846;48.692;2.382;2022-07-30T00:00:32;6.57;;;2.28;;
65244;SDS011;51846;48.692;2.382;2022-07-30T00:02:57;5.95;;;2.00;;
65244;SDS011;51846;48.692;2.382;2022-07-30T00:05:23;6.13;;;2.00;;
65244;SDS011;51846;48.692;2.382;2022-07-30T00:07:49;4.60;;;2.10;;
65244;SDS011;51846;48.692;2.382;2022-07-30T00:10:14;4.90;;;2.17;;
65244;SDS011;51846;48.692;2.382;2022-07-30T00:12:39;6.80;;;2.13;;
65244;SDS011;51846;48.692;2.382;2022-07-30T00:15:05;4.57;;;2.20;;
65244;SDS011;51846;48.692;2.382;2022-07-30T00:17:31;7.10;;;2.17;;
65244;SDS011;51846;48.692;2.382;2022-07-30T00:19:56;6.45;;;2.30;;
65244;SDS011;51846;48.692;2.382;2022-07-30T00:22:22;7.25;;;2.03;;
65244;SDS011;51846;48.692;2.382;2022-07-30T00:24:47;8.07;;;2.20;;
65244;SDS011;51846;48.692;2.382;2022-07-30T00:27:12;6.03;;;2.22;;
65244;SDS011;51846;48.692;2.382;2022-07-30T00:29:38;16.58;;;3.30;;
65244;SDS011;51846;48.692;2.382;2022-07-30T00:32:04;23.50;;;3.10;;
65244;SDS011;51846;48.692;2.382;2022-07-30T00:34:29;11.63;;;2.55;;
65244;SDS011;51846;48.692;2.382;2022-07-30T00:36:55;11.30;;;2.30;;
65244;SDS011;51846;48.692;2.382;2022-07-30T00:39:20;8.90;;;2.55;;
65244;SDS011;51846;48.692;2.382;2022-07-30T00:42:19;11.02;;;4.40;;
65244;SDS011;51846;48.692;2.382;2022-07-30T00:44:37;12.93;;;2.80;;
65244;SDS011;51846;48.692;2.382;2022-07-30T00:47:02;9.30;;;2.53;;
65244;SDS011;51846;48.692;2.382;2022-07-30T00:49:28;6.97;;;2.17;;
65244;SDS011;51846;48.692;2.382;2022-07-30T00:51:54;18.67;;;3.13;;
65244;SDS011;51846;48.692;2.382;2022-07-30T00:54:19;8.57;;;2.38;;
65244;SDS011;51846;48.692;2.382;2022-07-30T00:56:45;5.82;;;2.17;;
65244;SDS011;51846;48.692;2.382;2022-07-30T00:59:12;7.25;;;2.30;;
65244;SDS011;51846;48.692;2.382;2022-07-30T01:01:37;5.30;;;2.20;;
65244;SDS011;51846;48.692;2.382;2022-07-30T01:04:02;6.10;;;2.40;;
65244;SDS011;51846;48.692;2.382;2022-07-30T01:06:28;3.85;;;2.25;;
65244;SDS011;51846;48.692;2.382;2022-07-30T01:08:53;5.78;;;2.00;;
65244;SDS011;51846;48.692;2.382;2022-07-30T01:11:19;6.57;;;2.35;;
65244;SDS011;51846;48.692;2.382;2022-07-30T01:13:47;11.10;;;2.42;;
65244;SDS011;51846;48.692;2.382;2022-07-30T01:16:12;7.45;;;2.38;;
65244;SDS011;51846;48.692;2.382;2022-07-30T01:18:38;4.95;;;2.03;;
65244;SDS011;51846;48.692;2.382;2022-07-30T01:21:27;6.40;;;2.13;;
65244;SDS011;51846;48.692;2.382;2022-07-30T01:23:59;6.40;;;2.20;;
65244;SDS011;51846;48.692;2.382;2022-07-30T01:26:59;8.38;;;2.30;;
65244;SDS011;51846;48.692;2.382;2022-07-30T01:29:25;4.78;;;2.33;;
65244;SDS011;51846;48.692;2.382;2022-07-30T01:31:52;5.70;;;2.20;;
65244;SDS011;51846;48.692;2.382;2022-07-30T01:34:23;5.53;;;2.10;;
65244;SDS011;51846;48.692;2.382;2022-07-30T01:36:52;4.57;;;2.20;;
65244;SDS011;51846;48.692;2.382;2022-07-30T01:39:21;6.63;;;2.20;;
65244;SDS011;51846;48.692;2.382;2022-07-30T01:41:48;5.15;;;2.45;;
65244;SDS011;51846;48.692;2.382;2022-07-30T01:44:14;4.75;;;2.30;;
65244;SDS011;51846;48.692;2.382;2022-07-30T01:46:41;4.28;;;2.17;;
65244;SDS011;51846;48.692;2.382;2022-07-30T01:49:07;5.13;;;2.30;;
65244;SDS011;51846;48.692;2.382;2022-07-30T01:51:34;4.70;;;2.40;;
65244;SDS011;51846;48.692;2.382;2022-07-30T01:54:01;4.38;;;2.40;;
65244;SDS011;51846;48.692;2.382;2022-07-30T01:56:27;6.22;;;2.20;;
65244;SDS011;51846;48.692;2.382;2022-07-30T01:58:54;7.57;;;2.65;;
65244;SDS011;51846;48.692;2.382;2022-07-30T02:01:21;4.18;;;2.20;;
65244;SDS011;51846;48.692;2.382;2022-07-30T02:03:48;6.93;;;2.30;;
65244;SDS011;51846;48.692;2.382;2022-07-30T02:06:16;6.45;;;2.40;;
65244;SDS011;51846;48.692;2.382;2022-07-30T02:08:47;3.80;;;2.20;;
65244;SDS011;51846;48.692;2.382;2022-07-30T02:11:18;6.32;;;2.45;;
65244;SDS011;51846;48.692;2.382;2022-07-30T02:16:35;5.63;;;2.05;;
65244;SDS011;51846;48.692;2.382;2022-07-30T02:21:40;4.55;;;2.28;;
65244;SDS011;51846;48.692;2.382;2022-07-30T02:24:11;5.03;;;2.08;;
65244;SDS011;51846;48.692;2.382;2022-07-30T02:26:38;5.60;;;2.30;;
65244;SDS011;51846;48.692;2.382;2022-07-30T02:29:05;6.10;;;2.25;;
65244;SDS011;51846;48.692;2.382;2022-07-30T02:31:32;6.60;;;2.22;;
65244;SDS011;51846;48.692;2.382;2022-07-30T02:34:00;4.75;;;2.40;;
65244;SDS011;51846;48.692;2.382;2022-07-30T02:36:28;4.25;;;2.35;;
65244;SDS011;51846;48.692;2.382;2022-07-30T02:38:56;5.47;;;2.30;;
65244;SDS011;51846;48.692;2.382;2022-07-30T02:41:23;4.60;;;2.00;;
65244;SDS011;51846;48.692;2.382;2022-07-30T02:43:51;4.82;;;2.10;;
65244;SDS011;51846;48.692;2.382;2022-07-30T02:46:17;5.60;;;2.30;;
65244;SDS011;51846;48.692;2.382;2022-07-30T02:48:45;3.92;;;2.20;;
65244;SDS011;51846;48.692;2.382;2022-07-30T02:51:11;5.50;;;2.10;;
65244;SDS011;51846;48.692;2.382;2022-07-30T02:53:40;4.78;;;2.10;;
65244;SDS011;51846;48.692;2.382;2022-07-30T02:56:09;3.72;;;1.92;;
65244;SDS011;51846;48.692;2.382;2022-07-30T02:58:35;5.18;;;2.20;;
65244;SDS011;51846;48.692;2.382;2022-07-30T03:01:03;4.60;;;2.08;;
65244;SDS011;51846;48.692;2.382;2022-07-30T03:03:29;4.38;;;2.00;;
65244;SDS011;51846;48.692;2.382;2022-07-30T03:05:55;6.57;;;2.00;;
65244;SDS011;51846;48.692;2.382;2022-07-30T03:08:24;5.93;;;2.10;;
65244;SDS011;51846;48.692;2.382;2022-07-30T03:10:52;6.03;;;2.17;;
65244;SDS011;51846;48.692;2.382;2022-07-30T03:13:19;4.90;;;2.05;;
65244;SDS011;51846;48.692;2.382;2022-07-30T03:15:45;5.50;;;2.10;;
65244;SDS011;51846;48.692;2.382;2022-07-30T03:18:13;5.70;;;2.17;;
65244;SDS011;51846;48.692;2.382;2022-07-30T03:20:42;4.93;;;2.05;;
65244;SDS011;51846;48.692;2.382;2022-07-30T03:23:09;5.07;;;2.20;;
65244;SDS011;51846;48.692;2.382;2022-07-30T03:25:36;4.47;;;2.25;;
65244;SDS011;51846;48.692;2.382;2022-07-30T03:28:03;3.45;;;1.90;;
65244;SDS011;51846;48.692;2.382;2022-07-30T03:30:31;3.72;;;2.10;;
65244;SDS011;51846;48.692;2.382;2022-07-30T03:32:58;4.00;;;2.10;;
65244;SDS011;51846;48.692;2.382;2022-07-30T03:35:24;4.97;;;2.30;;
65244;SDS011;51846;48.692;2.382;2022-07-30T03:37:50;6.40;;;2.50;;
65244;SDS011;51846;48.692;2.382;2022-07-30T03:40:17;5.35;;;2.28;;
65244;SDS011;51846;48.692;2.382;2022-07-30T03:42:43;8.27;;;2.28;;
65244;SDS011;51846;48.692;2.382;2022-07-30T03:45:09;6.05;;;2.20;;
65244;SDS011;51846;48.692;2.382;2022-07-30T03:47:40;5.93;;;2.00;;
65244;SDS011;51846;48.692;2.382;2022-07-30T03:50:07;4.68;;;2.20;;
65244;SDS011;51846;48.692;2.382;2022-07-30T03:52:34;4.35;;;2.05;;
65244;SDS011;51846;48.692;2.382;2022-07-30T03:55:03;4.72;;;2.30;;
65244;SDS011;51846;48.692;2.382;2022-07-30T03:57:30;5.03;;;2.20;;
65244;SDS011;51846;48.692;2.382;2022-07-30T03:59:56;5.18;;;2.00;;
65244;SDS011;51846;48.692;2.382;2022-07-30T04:02:22;3.92;;;2.22;;
65244;SDS011;51846;48.692;2.382;2022-07-30T04:04:47;5.05;;;2.35;;
65244;SDS011;51846;48.692;2.382;2022-07-30T04:07:12;6.18;;;2.30;;
65244;SDS011;51846;48.692;2.382;2022-07-30T04:09:38;4.00;;;2.05;;
65244;SDS011;51846;48.692;2.382;2022-07-30T04:12:03;5.22;;;2.33;;
65244;SDS011;51846;48.692;2.382;2022-07-30T04:14:47;4.53;;;2.35;;
65244;SDS011;51846;48.692;2.382;2022-07-30T04:17:26;4.30;;;2.15;;
65244;SDS011;51846;48.692;2.382;2022-07-30T04:19:59;7.73;;;2.57;;
65244;SDS011;51846;48.692;2.382;2022-07-30T04:22:29;6.95;;;2.28;;
65244;SDS011;51846;48.692;2.382;2022-07-30T04:24:57;29.67;;;3.20;;
65244;SDS011;51846;48.692;2.382;2022-07-30T04:27:27;14.82;;;2.60;;
65244;SDS011;51846;48.692;2.382;2022-07-30T04:29:55;11.13;;;3.00;;
65244;SDS011;51846;48.692;2.382;2022-07-30T04:32:21;11.40;;;2.92;;
65244;SDS011;51846;48.692;2.382;2022-07-30T04:34:47;7.95;;;2.40;;
65244;SDS011;51846;48.692;2.382;2022-07-30T04:37:14;9.85;;;2.70;;
65244;SDS011;51846;48.692;2.382;2022-07-30T04:39:41;6.65;;;2.35;;
65244;SDS011;51846;48.692;2.382;2022-07-30T04:42:07;7.30;;;2.30;;
65244;SDS011;51846;48.692;2.382;2022-07-30T04:44:32;4.30;;;2.30;;
65244;SDS011;51846;48.692;2.382;2022-07-30T04:46:58;5.47;;;2.22;;
65244;SDS011;51846;48.692;2.382;2022-07-30T04:49:24;4.82;;;2.20;;
65244;SDS011;51846;48.692;2.382;2022-07-30T04:51:51;10.32;;;2.80;;
65244;SDS011;51846;48.692;2.382;2022-07-30T04:54:18;7.00;;;2.55;;
65244;SDS011;51846;48.692;2.382;2022-07-30T04:56:45;13.55;;;3.22;;
65244;SDS011;51846;48.692;2.382;2022-07-30T04:59:11;5.38;;;2.50;;
65244;SDS011;51846;48.692;2.382;2022-07-30T05:01:38;10.63;;;2.40;;
65244;SDS011;51846;48.692;2.382;2022-07-30T05:04:05;7.47;;;2.50;;
65244;SDS011;51846;48.692;2.382;2022-07-30T05:06:33;5.43;;;2.65;;
65244;SDS011;51846;48.692;2.382;2022-07-30T05:09:00;11.23;;;2.70;;
65244;SDS011;51846;48.692;2.382;2022-07-30T05:11:25;11.65;;;2.40;;
65244;SDS011;51846;48.692;2.382;2022-07-30T05:13:51;9.65;;;2.72;;
65244;SDS011;51846;48.692;2.382;2022-07-30T05:16:16;4.60;;;2.22;;
65244;SDS011;51846;48.692;2.382;2022-07-30T05:18:42;8.40;;;3.17;;
65244;SDS011;51846;48.692;2.382;2022-07-30T05:21:07;8.20;;;2.70;;
65244;SDS011;51846;48.692;2.382;2022-07-30T05:23:33;6.30;;;2.83;;
65244;SDS011;51846;48.692;2.382;2022-07-30T05:25:59;7.60;;;2.47;;
65244;SDS011;51846;48.692;2.382;2022-07-30T05:28:25;8.57;;;3.00;;
65244;SDS011;51846;48.692;2.382;2022-07-30T05:30:51;11.18;;;3.03;;
65244;SDS011;51846;48.692;2.382;2022-07-30T05:33:18;9.30;;;2.85;;
65244;SDS011;51846;48.692;2.382;2022-07-30T05:35:44;9.10;;;2.58;;
65244;SDS011;51846;48.692;2.382;2022-07-30T05:38:09;18.13;;;3.03;;
65244;SDS011;51846;48.692;2.382;2022-07-30T05:40:34;7.97;;;3.00;;
65244;SDS011;51846;48.692;2.382;2022-07-30T05:43:00;9.43;;;2.70;;
65244;SDS011;51846;48.692;2.382;2022-07-30T05:45:25;7.03;;;2.90;;
65244;SDS011;51846;48.692;2.382;2022-07-30T05:47:50;13.38;;;3.10;;
65244;SDS011;51846;48.692;2.382;2022-07-30T05:50:16;6.88;;;2.85;;
65244;SDS011;51846;48.692;2.382;2022-07-30T05:52:41;8.50;;;2.80;;
65244;SDS011;51846;48.692;2.382;2022-07-30T05:55:07;7.18;;;2.95;;
65244;SDS011;51846;48.692;2.382;2022-07-30T05:57:33;13.85;;;3.00;;
65244;SDS011;51846;48.692;2.382;2022-07-30T06:00:00;11.18;;;2.90;;
65244;SDS011;51846;48.692;2.382;2022-07-30T06:02:25;8.57;;;3.17;;
65244;SDS011;51846;48.692;2.382;2022-07-30T06:04:51;4.93;;;2.92;;
65244;SDS011;51846;48.692;2.382;2022-07-30T06:07:16;8.48;;;3.10;;
65244;SDS011;51846;48.692;2.382;2022-07-30T06:09:41;7.43;;;2.72;;
65244;SDS011;51846;48.692;2.382;2022-07-30T06:12:07;5.88;;;2.47;;
65244;SDS011;51846;48.692;2.382;2022-07-30T06:14:32;5.35;;;2.60;;
65244;SDS011;51846;48.692;2.382;2022-07-30T06:16:58;7.35;;;2.80;;
65244;SDS011;51846;48.692;2.382;2022-07-30T06:19:23;9.00;;;2.70;;
65244;SDS011;51846;48.692;2.382;2022-07-30T06:21:48;6.57;;;2.75;;
65244;SDS011;51846;48.692;2.382;2022-07-30T06:24:14;5.78;;;2.60;;
65244;SDS011;51846;48.692;2.382;2022-07-30T06:26:39;6.45;;;2.65;;
65244;SDS011;51846;48.692;2.382;2022-07-30T06:29:04;7.13;;;2.63;;
65244;SDS011;51846;48.692;2.382;2022-07-30T06:31:30;6.38;;;2.70;;
65244;SDS011;51846;48.692;2.382;2022-07-30T06:33:56;8.80;;;2.80;;
65244;SDS011;51846;48.692;2.382;2022-07-30T06:36:21;7.43;;;2.60;;
65244;SDS011;51846;48.692;2.382;2022-07-30T06:38:47;5.80;;;2.60;;
65244;SDS011;51846;48.692;2.382;2022-07-30T06:41:12;4.70;;;2.47;;
65244;SDS011;51846;48.692;2.382;2022-07-30T06:43:39;6.18;;;2.80;;
65244;SDS011;51846;48.692;2.382;2022-07-30T06:46:05;6.85;;;2.58;;
65244;SDS011;51846;48.692;2.382;2022-07-30T06:48:30;7.53;;;2.80;;
65244;SDS011;51846;48.692;2.382;2022-07-30T06:50:56;8.57;;;2.60;;
65244;SDS011;51846;48.692;2.382;2022-07-30T06:53:21;6.07;;;2.47;;
65244;SDS011;51846;48.692;2.382;2022-07-30T06:55:47;5.68;;;2.53;;
65244;SDS011;51846;48.692;2.382;2022-07-30T06:58:14;8.35;;;2.60;;
65244;SDS011;51846;48.692;2.382;2022-07-30T07:00:40;6.38;;;2.83;;
65244;SDS011;51846;48.692;2.382;2022-07-30T07:03:06;7.47;;;2.72;;
65244;SDS011;51846;48.692;2.382;2022-07-30T07:05:32;6.63;;;2.40;;
65244;SDS011;51846;48.692;2.382;2022-07-30T07:07:57;4.57;;;2.60;;
65244;SDS011;51846;48.692;2.382;2022-07-30T07:10:23;10.02;;;2.63;;
65244;SDS011;51846;48.692;2.382;2022-07-30T07:12:48;6.03;;;2.70;;
65244;SDS011;51846;48.692;2.382;2022-07-30T07:15:14;7.25;;;2.53;;
65244;SDS011;51846;48.692;2.382;2022-07-30T07:17:39;6.53;;;2.70;;
65244;SDS011;51846;48.692;2.382;2022-07-30T07:20:05;6.65;;;2.78;;
65244;SDS011;51846;48.692;2.382;2022-07-30T07:22:31;5.70;;;2.63;;
65244;SDS011;51846;48.692;2.382;2022-07-30T07:24:57;6.10;;;2.60;;
65244;SDS011;51846;48.692;2.382;2022-07-30T07:27:22;7.22;;;2.72;;
65244;SDS011;51846;48.692;2.382;2022-07-30T07:29:47;6.63;;;2.50;;
65244;SDS011;51846;48.692;2.382;2022-07-30T07:32:13;8.57;;;2.80;;
65244;SDS011;51846;48.692;2.382;2022-07-30T07:34:38;5.32;;;2.88;;
65244;SDS011;51846;48.692;2.382;2022-07-30T07:37:04;7.80;;;2.60;;
65244;SDS011;51846;48.692;2.382;2022-07-30T07:39:29;7.65;;;2.88;;
65244;SDS011;51846;48.692;2.382;2022-07-30T07:41:54;5.00;;;2.70;;
65244;SDS011;51846;48.692;2.382;2022-07-30T07:44:20;8.52;;;2.75;;
65244;SDS011;51846;48.692;2.382;2022-07-30T07:46:45;7.78;;;2.40;;
65244;SDS011;51846;48.692;2.382;2022-07-30T07:49:10;6.43;;;2.45;;
65244;SDS011;51846;48.692;2.382;2022-07-30T07:51:36;7.80;;;3.00;;
65244;SDS011;51846;48.692;2.382;2022-07-30T07:54:01;8.23;;;2.70;;
65244;SDS011;51846;48.692;2.382;2022-07-30T07:56:27;9.75;;;2.75;;
65244;SDS011;51846;48.692;2.382;2022-07-30T07:58:52;9.38;;;2.60;;
65244;SDS011;51846;48.692;2.382;2022-07-30T08:01:18;6.38;;;2.60;;
65244;SDS011;51846;48.692;2.382;2022-07-30T08:03:45;6.53;;;2.75;;
65244;SDS011;51846;48.692;2.382;2022-07-30T08:06:11;7.30;;;2.50;;
65244;SDS011;51846;48.692;2.382;2022-07-30T08:08:36;5.95;;;2.60;;
65244;SDS011;51846;48.692;2.382;2022-07-30T08:11:02;5.22;;;2.50;;
65244;SDS011;51846;48.692;2.382;2022-07-30T08:13:28;9.15;;;2.83;;
65244;SDS011;51846;48.692;2.382;2022-07-30T08:15:54;12.93;;;2.75;;
65244;SDS011;51846;48.692;2.382;2022-07-30T08:18:19;8.10;;;2.55;;
65244;SDS011;51846;48.692;2.382;2022-07-30T08:20:44;10.35;;;2.40;;
65244;SDS011;51846;48.692;2.382;2022-07-30T08:23:10;7.63;;;2.70;;
65244;SDS011;51846;48.692;2.382;2022-07-30T08:25:35;9.80;;;2.50;;
65244;SDS011;51846;48.692;2.382;2022-07-30T08:28:00;7.95;;;2.50;;
65244;SDS011;51846;48.692;2.382;2022-07-30T08:30:27;4.85;;;2.40;;
65244;SDS011;51846;48.692;2.382;2022-07-30T08:32:53;4.60;;;2.33;;
65244;SDS011;51846;48.692;2.382;2022-07-30T08:35:18;7.93;;;2.60;;
65244;SDS011;51846;48.692;2.382;2022-07-30T08:37:44;5.75;;;2.38;;
65244;SDS011;51846;48.692;2.382;2022-07-30T08:40:09;6.57;;;2.50;;
65244;SDS011;51846;48.692;2.382;2022-07-30T08:42:35;7.50;;;2.42;;
65244;SDS011;51846;48.692;2.382;2022-07-30T08:45:01;5.72;;;2.20;;
65244;SDS011;51846;48.692;2.382;2022-07-30T08:47:31;5.80;;;2.35;;
65244;SDS011;51846;48.692;2.382;2022-07-30T08:49:58;7.53;;;2.53;;
65244;SDS011;51846;48.692;2.382;2022-07-30T08:52:31;6.70;;;2.67;;
65244;SDS011;51846;48.692;2.382;2022-07-30T08:54:57;6.60;;;2.67;;
65244;SDS011;51846;48.692;2.382;2022-07-30T08:57:23;6.85;;;2.58;;
65244;SDS011;51846;48.692;2.382;2022-07-30T08:59:49;5.20;;;2.58;;
65244;SDS011;51846;48.692;2.382;2022-07-30T09:02:15;5.35;;;2.60;;
65244;SDS011;51846;48.692;2.382;2022-07-30T09:04:41;7.82;;;2.20;;
65244;SDS011;51846;48.692;2.382;2022-07-30T09:07:06;7.80;;;2.72;;
65244;SDS011;51846;48.692;2.382;2022-07-30T09:09:32;3.78;;;2.30;;
65244;SDS011;51846;48.692;2.382;2022-07-30T09:11:58;6.40;;;2.50;;
65244;SDS011;51846;48.692;2.382;2022-07-30T09:14:23;5.78;;;2.50;;
65244;SDS011;51846;48.692;2.382;2022-07-30T09:16:54;6.70;;;2.30;;
65244;SDS011;51846;48.692;2.382;2022-07-30T09:19:21;6.45;;;2.05;;
65244;SDS011;51846;48.692;2.382;2022-07-30T09:21:54;6.32;;;2.00;;
65244;SDS011;51846;48.692;2.382;2022-07-30T09:24:23;6.63;;;2.20;;
65244;SDS011;51846;48.692;2.382;2022-07-30T09:26:56;4.80;;;2.10;;
65244;SDS011;51846;48.692;2.382;2022-07-30T09:29:25;3.60;;;1.80;;
65244;SDS011;51846;48.692;2.382;2022-07-30T09:36:56;5.18;;;2.00;;
65244;SDS011;51846;48.692;2.382;2022-07-30T09:39:29;5.80;;;2.33;;
65244;SDS011;51846;48.692;2.382;2022-07-30T09:41:55;5.38;;;2.00;;
65244;SDS011;51846;48.692;2.382;2022-07-30T09:44:24;3.65;;;2.00;;
65244;SDS011;51846;48.692;2.382;2022-07-30T09:46:51;3.72;;;1.90;;
65244;SDS011;51846;48.692;2.382;2022-07-30T09:49:18;4.82;;;2.00;;
65244;SDS011;51846;48.692;2.382;2022-07-30T09:51:47;6.80;;;2.20;;
65244;SDS011;51846;48.692;2.382;2022-07-30T09:54:14;7.07;;;2.10;;
65244;SDS011;51846;48.692;2.382;2022-07-30T09:56:39;4.45;;;1.90;;
65244;SDS011;51846;48.692;2.382;2022-07-30T09:59:05;5.53;;;2.25;;
65244;SDS011;51846;48.692;2.382;2022-07-30T10:01:50;7.13;;;2.03;;
65244;SDS011;51846;48.692;2.382;2022-07-30T10:06:52;6.25;;;2.22;;
65244;SDS011;51846;48.692;2.382;2022-07-30T10:09:27;6.50;;;2.80;;
65244;SDS011;51846;48.692;2.382;2022-07-30T10:11:58;5.75;;;2.13;;
65244;SDS011;51846;48.692;2.382;2022-07-30T10:14:27;4.78;;;2.13;;
65244;SDS011;51846;48.692;2.382;2022-07-30T10:16:54;4.43;;;2.40;;
65244;SDS011;51846;48.692;2.382;2022-07-30T10:19:21;4.65;;;2.30;;
65244;SDS011;51846;48.692;2.382;2022-07-30T10:21:50;5.50;;;2.20;;
65244;SDS011;51846;48.692;2.382;2022-07-30T10:24:18;4.72;;;1.95;;
65244;SDS011;51846;48.692;2.382;2022-07-30T10:26:46;6.82;;;2.10;;
65244;SDS011;51846;48.692;2.382;2022-07-30T10:29:17;8.55;;;2.30;;
65244;SDS011;51846;48.692;2.382;2022-07-30T10:31:43;6.90;;;2.20;;
65244;SDS011;51846;48.692;2.382;2022-07-30T10:34:13;9.88;;;2.35;;
65244;SDS011;51846;48.692;2.382;2022-07-30T10:36:42;4.03;;;2.00;;
65244;SDS011;51846;48.692;2.382;2022-07-30T10:39:10;4.30;;;2.40;;
65244;SDS011;51846;48.692;2.382;2022-07-30T10:44:42;8.00;;;2.35;;
65244;SDS011;51846;48.692;2.382;2022-07-30T10:47:15;10.07;;;2.45;;
65244;SDS011;51846;48.692;2.382;2022-07-30T10:52:46;7.15;;;2.28;;
65244;SDS011;51846;48.692;2.382;2022-07-30T10:55:23;5.82;;;2.30;;
65244;SDS011;51846;48.692;2.382;2022-07-30T11:00:26;6.90;;;2.20;;
65244;SDS011;51846;48.692;2.382;2022-07-30T11:03:12;3.88;;;2.33;;
65244;SDS011;51846;48.692;2.382;2022-07-30T11:05:50;6.20;;;2.05;;
65244;SDS011;51846;48.692;2.382;2022-07-30T11:08:29;5.97;;;2.13;;
65244;SDS011;51846;48.692;2.382;2022-07-30T11:10:56;10.63;;;2.10;;
65244;SDS011;51846;48.692;2.382;2022-07-30T11:14:04;6.10;;;2.05;;
65244;SDS011;51846;48.692;2.382;2022-07-30T11:16:19;4.80;;;2.00;;
65244;SDS011;51846;48.692;2.382;2022-07-30T11:24:53;3.25;;;1.90;;
65244;SDS011;51846;48.692;2.382;2022-07-30T11:32:43;4.80;;;2.05;;
65244;SDS011;51846;48.692;2.382;2022-07-30T11:35:18;2.95;;;2.10;;
65244;SDS011;51846;48.692;2.382;2022-07-30T11:38:04;5.93;;;2.15;;
65244;SDS011;51846;48.692;2.382;2022-07-30T11:40:35;4.50;;;1.90;;
65244;SDS011;51846;48.692;2.382;2022-07-30T11:43:16;6.90;;;2.20;;
65244;SDS011;51846;48.692;2.382;2022-07-30T11:45:54;5.10;;;2.28;;
65244;SDS011;51846;48.692;2.382;2022-07-30T11:48:33;5.30;;;2.10;;
65244;SDS011;51846;48.692;2.382;2022-07-30T11:50:59;6.45;;;2.05;;
65244;SDS011;51846;48.692;2.382;2022-07-30T11:53:25;5.85;;;2.13;;
65244;SDS011;51846;48.692;2.382;2022-07-30T12:00:48;5.30;;;1.95;;
65244;SDS011;51846;48.692;2.382;2022-07-30T12:03:16;4.97;;;2.08;;
65244;SDS011;51846;48.692;2.382;2022-07-30T12:05:43;4.95;;;1.90;;
65244;SDS011;51846;48.692;2.382;2022-07-30T12:08:10;5.13;;;2.10;;
65244;SDS011;51846;48.692;2.382;2022-07-30T12:10:37;5.88;;;1.90;;
65244;SDS011;51846;48.692;2.382;2022-07-30T12:13:09;7.13;;;1.80;;
65244;SDS011;51846;48.692;2.382;2022-07-30T12:18:10;4.10;;;1.60;;
65244;SDS011;51846;48.692;2.382;2022-07-30T12:20:37;4.88;;;1.75;;
65244;SDS011;51846;48.692;2.382;2022-07-30T12:23:12;4.00;;;1.80;;
65244;SDS011;51846;48.692;2.382;2022-07-30T12:25:39;6.45;;;1.90;;
65244;SDS011;51846;48.692;2.382;2022-07-30T12:28:05;5.28;;;1.80;;
65244;SDS011;51846;48.692;2.382;2022-07-30T12:30:31;2.47;;;1.65;;
65244;SDS011;51846;48.692;2.382;2022-07-30T12:32:56;3.90;;;1.63;;
65244;SDS011;51846;48.692;2.382;2022-07-30T12:35:22;2.55;;;1.65;;
65244;SDS011;51846;48.692;2.382;2022-07-30T12:38:03;6.50;;;1.70;;
65244;SDS011;51846;48.692;2.382;2022-07-30T12:40:29;4.75;;;1.88;;
65244;SDS011;51846;48.692;2.382;2022-07-30T12:42:54;4.90;;;1.70;;
65244;SDS011;51846;48.692;2.382;2022-07-30T12:45:26;5.05;;;1.70;;
65244;SDS011;51846;48.692;2.382;2022-07-30T12:47:57;6.25;;;1.90;;
65244;SDS011;51846;48.692;2.382;2022-07-30T12:50:23;3.30;;;1.50;;
65244;SDS011;51846;48.692;2.382;2022-07-30T12:52:51;4.88;;;1.80;;
65244;SDS011;51846;48.692;2.382;2022-07-30T12:55:26;3.78;;;1.60;;
65244;SDS011;51846;48.692;2.382;2022-07-30T12:57:57;6.68;;;1.83;;
65244;SDS011;51846;48.692;2.382;2022-07-30T13:00:24;7.38;;;1.90;;
65244;SDS011;51846;48.692;2.382;2022-07-30T13:02:52;5.05;;;1.70;;
65244;SDS011;51846;48.692;2.382;2022-07-30T13:05:17;3.20;;;1.70;;
65244;SDS011;51846;48.692;2.382;2022-07-30T13:07:53;3.65;;;1.70;;
65244;SDS011;51846;48.692;2.382;2022-07-30T13:10:19;5.10;;;1.65;;
65244;SDS011;51846;48.692;2.382;2022-07-30T13:12:44;5.28;;;1.52;;
65244;SDS011;51846;48.692;2.382;2022-07-30T13:15:15;3.88;;;1.63;;
65244;SDS011;51846;48.692;2.382;2022-07-30T13:20:11;4.50;;;1.60;;
65244;SDS011;51846;48.692;2.382;2022-07-30T13:22:38;4.18;;;1.70;;
65244;SDS011;51846;48.692;2.382;2022-07-30T13:25:03;4.20;;;1.60;;
65244;SDS011;51846;48.692;2.382;2022-07-30T13:27:29;2.97;;;1.63;;
65244;SDS011;51846;48.692;2.382;2022-07-30T13:29:54;3.40;;;1.70;;
65244;SDS011;51846;48.692;2.382;2022-07-30T13:32:19;2.58;;;1.48;;
65244;SDS011;51846;48.692;2.382;2022-07-30T13:34:45;5.55;;;1.80;;
65244;SDS011;51846;48.692;2.382;2022-07-30T13:37:10;3.83;;;1.80;;
65244;SDS011;51846;48.692;2.382;2022-07-30T13:39:35;4.68;;;1.80;;
65244;SDS011;51846;48.692;2.382;2022-07-30T13:42:01;5.78;;;1.60;;
65244;SDS011;51846;48.692;2.382;2022-07-30T13:44:26;2.67;;;1.50;;
65244;SDS011;51846;48.692;2.382;2022-07-30T13:46:52;3.50;;;1.60;;
65244;SDS011;51846;48.692;2.382;2022-07-30T13:49:17;3.35;;;1.63;;
65244;SDS011;51846;48.692;2.382;2022-07-30T13:51:42;3.80;;;1.80;;
65244;SDS011;51846;48.692;2.382;2022-07-30T13:54:08;3.13;;;1.75;;
65244;SDS011;51846;48.692;2.382;2022-07-30T13:56:33;4.40;;;1.60;;
65244;SDS011;51846;48.692;2.382;2022-07-30T13:58:59;3.00;;;1.50;;
65244;SDS011;51846;48.692;2.382;2022-07-30T14:01:24;3.88;;;1.80;;
65244;SDS011;51846;48.692;2.382;2022-07-30T14:03:50;3.28;;;1.70;;
65244;SDS011;51846;48.692;2.382;2022-07-30T14:06:15;5.45;;;1.58;;
65244;SDS011;51846;48.692;2.382;2022-07-30T14:08:40;6.55;;;1.70;;
65244;SDS011;51846;48.692;2.382;2022-07-30T14:11:06;4.20;;;1.58;;
65244;SDS011;51846;48.692;2.382;2022-07-30T14:13:32;6.13;;;1.65;;
65244;SDS011;51846;48.692;2.382;2022-07-30T14:15:57;3.90;;;1.70;;
65244;SDS011;51846;48.692;2.382;2022-07-30T14:18:23;4.22;;;1.85;;
65244;SDS011;51846;48.692;2.382;2022-07-30T14:20:48;5.00;;;1.63;;
65244;SDS011;51846;48.692;2.382;2022-07-30T14:23:16;3.80;;;1.70;;
65244;SDS011;51846;48.692;2.382;2022-07-30T14:25:41;4.80;;;1.60;;
65244;SDS011;51846;48.692;2.382;2022-07-30T14:28:08;5.70;;;1.70;;
65244;SDS011;51846;48.692;2.382;2022-07-30T14:30:33;3.42;;;1.63;;
65244;SDS011;51846;48.692;2.382;2022-07-30T14:32:59;3.55;;;1.60;;
65244;SDS011;51846;48.692;2.382;2022-07-30T14:35:24;2.72;;;1.67;;
65244;SDS011;51846;48.692;2.382;2022-07-30T14:37:50;3.50;;;1.80;;
65244;SDS011;51846;48.692;2.382;2022-07-30T14:40:15;2.17;;;1.50;;
65244;SDS011;51846;48.692;2.382;2022-07-30T14:42:40;5.47;;;1.55;;
65244;SDS011;51846;48.692;2.382;2022-07-30T14:45:06;3.35;;;1.67;;
65244;SDS011;51846;48.692;2.382;2022-07-30T14:47:33;3.45;;;1.70;;
65244;SDS011;51846;48.692;2.382;2022-07-30T14:49:58;4.88;;;1.70;;
65244;SDS011;51846;48.692;2.382;2022-07-30T14:52:24;4.05;;;1.60;;
65244;SDS011;51846;48.692;2.382;2022-07-30T14:54:50;4.10;;;1.58;;
65244;SDS011;51846;48.692;2.382;2022-07-30T14:57:16;3.33;;;1.73;;
65244;SDS011;51846;48.692;2.382;2022-07-30T14:59:42;2.17;;;1.40;;
65244;SDS011;51846;48.692;2.382;2022-07-30T15:02:07;2.47;;;1.52;;
65244;SDS011;51846;48.692;2.382;2022-07-30T15:04:32;3.75;;;1.50;;
65244;SDS011;51846;48.692;2.382;2022-07-30T15:06:58;3.75;;;1.63;;
65244;SDS011;51846;48.692;2.382;2022-07-30T15:09:23;3.90;;;1.70;;
65244;SDS011;51846;48.692;2.382;2022-07-30T15:11:48;5.57;;;1.70;;
65244;SDS011;51846;48.692;2.382;2022-07-30T15:14:14;4.32;;;1.63;;
65244;SDS011;51846;48.692;2.382;2022-07-30T15:16:39;4.93;;;1.70;;
65244;SDS011;51846;48.692;2.382;2022-07-30T15:19:05;3.60;;;1.73;;
65244;SDS011;51846;48.692;2.382;2022-07-30T15:21:30;3.63;;;1.40;;
65244;SDS011;51846;48.692;2.382;2022-07-30T15:23:56;3.45;;;1.52;;
65244;SDS011;51846;48.692;2.382;2022-07-30T15:26:21;4.13;;;1.60;;
65244;SDS011;51846;48.692;2.382;2022-07-30T15:28:47;2.83;;;1.60;;